sensor_id;sensor_type;location;lat;lon;timestamp;temperature;humidity
20483;DHT22;10400;53.198;6.592;2022-10-22T00:00:32;13.80;99.90
20483;DHT22;10400;53.198;6.592;2022-10-22T00:02:58;13.80;99.90
20483;DHT22;10400;53.198;6.592;2022-10-22T00:05:23;13.80;99.90
20483;DHT22;10400;53.198;6.592;2022-10-22T00:07:49;13.70;99.90
20483;DHT22;10400;53.198;6.592;2022-10-22T00:10:15;13.70;99.90
20483;DHT22;10400;53.198;6.592;2022-10-22T00:12:42;13.80;99.90
20483;DHT22;10400;53.198;6.592;2022-10-22T00:15:07;13.70;99.90
20483;DHT22;10400;53.198;6.592;2022-10-22T00:17:34;13.70;99.90
20483;DHT22;10400;53.198;6.592;2022-10-22T00:20:00;13.70;99.90
20483;DHT22;10400;53.198;6.592;2022-10-22T00:22:26;13.60;99.90
20483;DHT22;10400;53.198;6.592;2022-10-22T00:24:52;13.60;99.90
20483;DHT22;10400;53.198;6.592;2022-10-22T00:27:17;13.60;99.90
20483;DHT22;10400;53.198;6.592;2022-10-22T00:29:43;13.60;99.90
20483;DHT22;10400;53.198;6.592;2022-10-22T00:32:08;13.60;99.90
20483;DHT22;10400;53.198;6.592;2022-10-22T00:34:34;13.60;99.90
20483;DHT22;10400;53.198;6.592;2022-10-22T00:37:00;13.50;99.90
20483;DHT22;10400;53.198;6.592;2022-10-22T00:39:27;13.50;99.90
20483;DHT22;10400;53.198;6.592;2022-10-22T00:41:54;13.50;99.90
20483;DHT22;10400;53.198;6.592;2022-10-22T00:47:24;13.50;99.90
20483;DHT22;10400;53.198;6.592;2022-10-22T00:49:52;13.50;99.90
20483;DHT22;10400;53.198;6.592;2022-10-22T00:52:19;13.50;99.90
20483;DHT22;10400;53.198;6.592;2022-10-22T00:54:45;13.50;99.90
20483;DHT22;10400;53.198;6.592;2022-10-22T00:57:11;13.50;99.90
20483;DHT22;10400;53.198;6.592;2022-10-22T00:59:37;13.40;99.90
20483;DHT22;10400;53.198;6.592;2022-10-22T01:02:03;13.40;99.90
20483;DHT22;10400;53.198;6.592;2022-10-22T01:04:28;13.40;99.90
20483;DHT22;10400;53.198;6.592;2022-10-22T01:06:54;13.50;99.90
20483;DHT22;10400;53.198;6.592;2022-10-22T01:12:11;13.40;99.90
20483;DHT22;10400;53.198;6.592;2022-10-22T01:26:53;13.40;99.90
20483;DHT22;10400;53.198;6.592;2022-10-22T01:29:38;13.40;99.90
20483;DHT22;10400;53.198;6.592;2022-10-22T01:32:16;13.40;99.90
20483;DHT22;10400;53.198;6.592;2022-10-22T01:34:48;13.40;99.90
20483;DHT22;10400;53.198;6.592;2022-10-22T01:37:16;13.50;99.90
20483;DHT22;10400;53.198;6.592;2022-10-22T01:39:44;13.40;99.90
20483;DHT22;10400;53.198;6.592;2022-10-22T01:42:12;13.40;99.90
20483;DHT22;10400;53.198;6.592;2022-10-22T01:44:38;13.50;99.90
20483;DHT22;10400;53.198;6.592;2022-10-22T01:50:26;13.40;99.90
20483;DHT22;10400;53.198;6.592;2022-10-22T01:55:54;13.50;99.90
20483;DHT22;10400;53.198;6.592;2022-10-22T02:06:28;13.40;99.90
20483;DHT22;10400;53.198;6.592;2022-10-22T02:08:56;13.40;99.90
20483;DHT22;10400;53.198;6.592;2022-10-22T02:11:22;13.40;99.90
20483;DHT22;10400;53.198;6.592;2022-10-22T02:13:52;13.40;99.90
20483;DHT22;10400;53.198;6.592;2022-10-22T02:16:33;13.40;99.90
20483;DHT22;10400;53.198;6.592;2022-10-22T02:19:05;13.40;99.90
20483;DHT22;10400;53.198;6.592;2022-10-22T02:21:31;13.40;99.90
20483;DHT22;10400;53.198;6.592;2022-10-22T02:23:57;13.40;99.90
20483;DHT22;10400;53.198;6.592;2022-10-22T02:26:33;13.40;99.90
20483;DHT22;10400;53.198;6.592;2022-10-22T02:29:21;13.40;99.90
20483;DHT22;10400;53.198;6.592;2022-10-22T02:31:50;13.40;99.90
20483;DHT22;10400;53.198;6.592;2022-10-22T02:34:21;13.40;99.90
20483;DHT22;10400;53.198;6.592;2022-10-22T02:36:48;13.40;99.90
20483;DHT22;10400;53.198;6.592;2022-10-22T02:39:14;13.40;99.90
20483;DHT22;10400;53.198;6.592;2022-10-22T02:41:41;13.40;99.90
20483;DHT22;10400;53.198;6.592;2022-10-22T02:44:09;13.40;99.90
20483;DHT22;10400;53.198;6.592;2022-10-22T02:46:36;13.40;99.90
20483;DHT22;10400;53.198;6.592;2022-10-22T02:49:03;13.50;99.90
20483;DHT22;10400;53.198;6.592;2022-10-22T02:51:29;13.40;99.90
20483;DHT22;10400;53.198;6.592;2022-10-22T02:53:54;13.40;99.90
20483;DHT22;10400;53.198;6.592;2022-10-22T02:56:20;13.50;99.90
20483;DHT22;10400;53.198;6.592;2022-10-22T02:58:46;13.50;99.90
20483;DHT22;10400;53.198;6.592;2022-10-22T03:01:11;13.50;99.90
20483;DHT22;10400;53.198;6.592;2022-10-22T03:03:37;13.50;99.90
20483;DHT22;10400;53.198;6.592;2022-10-22T03:06:03;13.50;99.90
20483;DHT22;10400;53.198;6.592;2022-10-22T03:08:28;13.60;99.90
20483;DHT22;10400;53.198;6.592;2022-10-22T03:10:54;13.60;99.90
20483;DHT22;10400;53.198;6.592;2022-10-22T03:13:19;13.60;99.90
20483;DHT22;10400;53.198;6.592;2022-10-22T03:15:48;13.60;99.90
20483;DHT22;10400;53.198;6.592;2022-10-22T03:18:13;13.60;99.90
20483;DHT22;10400;53.198;6.592;2022-10-22T03:20:39;13.60;99.90
20483;DHT22;10400;53.198;6.592;2022-10-22T03:23:05;13.60;99.90
20483;DHT22;10400;53.198;6.592;2022-10-22T03:25:31;13.60;99.90
20483;DHT22;10400;53.198;6.592;2022-10-22T03:28:04;13.50;99.90
20483;DHT22;10400;53.198;6.592;2022-10-22T03:30:31;13.50;99.90
20483;DHT22;10400;53.198;6.592;2022-10-22T03:32:57;13.50;99.90
20483;DHT22;10400;53.198;6.592;2022-10-22T03:35:22;13.40;99.90
20483;DHT22;10400;53.198;6.592;2022-10-22T03:37:49;13.40;99.90
20483;DHT22;10400;53.198;6.592;2022-10-22T03:40:14;13.40;99.90
20483;DHT22;10400;53.198;6.592;2022-10-22T03:42:41;13.40;99.90
20483;DHT22;10400;53.198;6.592;2022-10-22T03:45:07;13.40;99.90
20483;DHT22;10400;53.198;6.592;2022-10-22T03:47:33;13.30;99.90
20483;DHT22;10400;53.198;6.592;2022-10-22T03:49:59;13.30;99.90
20483;DHT22;10400;53.198;6.592;2022-10-22T03:52:24;13.30;99.90
20483;DHT22;10400;53.198;6.592;2022-10-22T03:54:50;13.30;99.90
20483;DHT22;10400;53.198;6.592;2022-10-22T03:57:16;13.30;99.90
20483;DHT22;10400;53.198;6.592;2022-10-22T03:59:43;13.30;99.90
20483;DHT22;10400;53.198;6.592;2022-10-22T04:02:10;13.30;99.90
20483;DHT22;10400;53.198;6.592;2022-10-22T04:04:37;13.30;99.90
20483;DHT22;10400;53.198;6.592;2022-10-22T04:07:04;13.30;99.90
20483;DHT22;10400;53.198;6.592;2022-10-22T04:09:31;13.30;99.90
20483;DHT22;10400;53.198;6.592;2022-10-22T04:11:57;13.20;99.90
20483;DHT22;10400;53.198;6.592;2022-10-22T04:14:22;13.20;99.90
20483;DHT22;10400;53.198;6.592;2022-10-22T04:16:48;13.20;99.90
20483;DHT22;10400;53.198;6.592;2022-10-22T04:19:14;13.20;99.90
20483;DHT22;10400;53.198;6.592;2022-10-22T04:21:39;13.20;99.90
20483;DHT22;10400;53.198;6.592;2022-10-22T04:24:05;13.20;99.90
20483;DHT22;10400;53.198;6.592;2022-10-22T04:26:30;13.20;99.90
20483;DHT22;10400;53.198;6.592;2022-10-22T04:28:56;13.20;99.90
20483;DHT22;10400;53.198;6.592;2022-10-22T04:31:23;13.10;99.90
20483;DHT22;10400;53.198;6.592;2022-10-22T04:33:57;13.10;99.90
20483;DHT22;10400;53.198;6.592;2022-10-22T04:36:24;13.10;99.90
20483;DHT22;10400;53.198;6.592;2022-10-22T04:38:58;13.10;99.90
20483;DHT22;10400;53.198;6.592;2022-10-22T04:41:27;13.10;99.90
20483;DHT22;10400;53.198;6.592;2022-10-22T04:43:54;13.00;99.90
20483;DHT22;10400;53.198;6.592;2022-10-22T04:46:20;13.00;99.90
20483;DHT22;10400;53.198;6.592;2022-10-22T04:48:46;13.00;99.90
20483;DHT22;10400;53.198;6.592;2022-10-22T04:51:15;13.00;99.90
20483;DHT22;10400;53.198;6.592;2022-10-22T04:53:41;13.00;99.90
20483;DHT22;10400;53.198;6.592;2022-10-22T04:56:14;13.00;99.90
20483;DHT22;10400;53.198;6.592;2022-10-22T04:58:57;13.10;99.90
20483;DHT22;10400;53.198;6.592;2022-10-22T05:01:28;13.10;99.90
20483;DHT22;10400;53.198;6.592;2022-10-22T05:03:56;13.00;99.90
20483;DHT22;10400;53.198;6.592;2022-10-22T05:06:23;13.10;99.90
20483;DHT22;10400;53.198;6.592;2022-10-22T05:08:53;13.00;99.90
20483;DHT22;10400;53.198;6.592;2022-10-22T05:11:22;13.00;99.90
20483;DHT22;10400;53.198;6.592;2022-10-22T05:13:48;13.10;99.90
20483;DHT22;10400;53.198;6.592;2022-10-22T05:16:14;13.00;99.90
20483;DHT22;10400;53.198;6.592;2022-10-22T05:18:42;13.10;99.90
20483;DHT22;10400;53.198;6.592;2022-10-22T05:21:14;13.00;99.90
20483;DHT22;10400;53.198;6.592;2022-10-22T05:23:41;13.00;99.90
20483;DHT22;10400;53.198;6.592;2022-10-22T05:26:08;13.10;99.90
20483;DHT22;10400;53.198;6.592;2022-10-22T05:28:35;13.00;99.90
20483;DHT22;10400;53.198;6.592;2022-10-22T05:31:01;13.00;99.90
20483;DHT22;10400;53.198;6.592;2022-10-22T05:33:28;13.00;99.90
20483;DHT22;10400;53.198;6.592;2022-10-22T05:35:54;13.00;99.90
20483;DHT22;10400;53.198;6.592;2022-10-22T05:38:20;13.00;99.90
20483;DHT22;10400;53.198;6.592;2022-10-22T05:40:46;13.00;99.90
20483;DHT22;10400;53.198;6.592;2022-10-22T05:43:12;13.10;99.90
20483;DHT22;10400;53.198;6.592;2022-10-22T05:45:41;13.00;99.90
20483;DHT22;10400;53.198;6.592;2022-10-22T05:48:07;13.00;99.90
20483;DHT22;10400;53.198;6.592;2022-10-22T05:50:37;13.00;99.90
20483;DHT22;10400;53.198;6.592;2022-10-22T05:53:06;13.00;99.90
20483;DHT22;10400;53.198;6.592;2022-10-22T05:55:36;13.00;99.90
20483;DHT22;10400;53.198;6.592;2022-10-22T05:58:02;13.10;99.90
20483;DHT22;10400;53.198;6.592;2022-10-22T06:00:28;13.10;99.90
20483;DHT22;10400;53.198;6.592;2022-10-22T06:02:54;13.00;99.90
20483;DHT22;10400;53.198;6.592;2022-10-22T06:05:19;13.10;99.90
20483;DHT22;10400;53.198;6.592;2022-10-22T06:07:45;13.10;99.90
20483;DHT22;10400;53.198;6.592;2022-10-22T06:10:17;13.10;99.90
20483;DHT22;10400;53.198;6.592;2022-10-22T06:12:45;13.10;99.90
20483;DHT22;10400;53.198;6.592;2022-10-22T06:15:12;13.10;99.90
20483;DHT22;10400;53.198;6.592;2022-10-22T06:17:38;13.20;99.90
20483;DHT22;10400;53.198;6.592;2022-10-22T06:20:04;13.20;99.90
20483;DHT22;10400;53.198;6.592;2022-10-22T06:22:29;13.20;99.90
20483;DHT22;10400;53.198;6.592;2022-10-22T06:24:55;13.20;99.90
20483;DHT22;10400;53.198;6.592;2022-10-22T06:27:21;13.30;99.90
20483;DHT22;10400;53.198;6.592;2022-10-22T06:29:47;13.30;99.90
20483;DHT22;10400;53.198;6.592;2022-10-22T06:32:13;13.30;99.90
20483;DHT22;10400;53.198;6.592;2022-10-22T06:34:38;13.30;99.90
20483;DHT22;10400;53.198;6.592;2022-10-22T06:37:04;13.30;99.90
20483;DHT22;10400;53.198;6.592;2022-10-22T06:39:30;13.30;99.90
20483;DHT22;10400;53.198;6.592;2022-10-22T06:41:55;13.30;99.90
20483;DHT22;10400;53.198;6.592;2022-10-22T06:44:21;13.30;99.90
20483;DHT22;10400;53.198;6.592;2022-10-22T06:46:51;13.30;99.90
20483;DHT22;10400;53.198;6.592;2022-10-22T06:49:18;13.30;99.90
20483;DHT22;10400;53.198;6.592;2022-10-22T06:51:48;13.30;99.90
20483;DHT22;10400;53.198;6.592;2022-10-22T06:54:13;13.40;99.90
20483;DHT22;10400;53.198;6.592;2022-10-22T06:56:39;13.30;99.90
20483;DHT22;10400;53.198;6.592;2022-10-22T06:59:05;13.40;99.90
20483;DHT22;10400;53.198;6.592;2022-10-22T07:01:33;13.50;99.90
20483;DHT22;10400;53.198;6.592;2022-10-22T07:03:59;13.50;99.90
20483;DHT22;10400;53.198;6.592;2022-10-22T07:06:26;13.60;99.90
20483;DHT22;10400;53.198;6.592;2022-10-22T07:08:56;13.70;99.90
20483;DHT22;10400;53.198;6.592;2022-10-22T07:11:25;13.60;99.90
20483;DHT22;10400;53.198;6.592;2022-10-22T07:13:53;13.70;99.90
20483;DHT22;10400;53.198;6.592;2022-10-22T07:16:20;13.80;99.90
20483;DHT22;10400;53.198;6.592;2022-10-22T07:18:46;13.80;99.90
20483;DHT22;10400;53.198;6.592;2022-10-22T07:21:13;13.90;99.90
20483;DHT22;10400;53.198;6.592;2022-10-22T07:23:39;13.90;99.90
20483;DHT22;10400;53.198;6.592;2022-10-22T07:26:06;14.00;99.90
20483;DHT22;10400;53.198;6.592;2022-10-22T07:28:33;14.00;99.90
20483;DHT22;10400;53.198;6.592;2022-10-22T07:30:59;14.10;99.90
20483;DHT22;10400;53.198;6.592;2022-10-22T07:33:25;14.10;99.90
20483;DHT22;10400;53.198;6.592;2022-10-22T07:36:00;14.10;99.90
20483;DHT22;10400;53.198;6.592;2022-10-22T07:38:26;14.20;99.90
20483;DHT22;10400;53.198;6.592;2022-10-22T07:40:52;14.10;99.90
20483;DHT22;10400;53.198;6.592;2022-10-22T07:43:18;14.20;99.90
20483;DHT22;10400;53.198;6.592;2022-10-22T07:45:44;14.30;99.90
20483;DHT22;10400;53.198;6.592;2022-10-22T07:48:10;14.30;99.90
20483;DHT22;10400;53.198;6.592;2022-10-22T07:50:35;14.30;99.90
20483;DHT22;10400;53.198;6.592;2022-10-22T07:53:01;14.30;99.90
20483;DHT22;10400;53.198;6.592;2022-10-22T07:55:27;14.30;99.90
20483;DHT22;10400;53.198;6.592;2022-10-22T07:57:52;14.30;99.90
20483;DHT22;10400;53.198;6.592;2022-10-22T08:00:18;14.30;99.90
20483;DHT22;10400;53.198;6.592;2022-10-22T08:02:44;14.40;99.90
20483;DHT22;10400;53.198;6.592;2022-10-22T08:05:09;14.40;99.90
20483;DHT22;10400;53.198;6.592;2022-10-22T08:07:38;14.40;99.90
20483;DHT22;10400;53.198;6.592;2022-10-22T08:10:04;14.40;99.90
20483;DHT22;10400;53.198;6.592;2022-10-22T08:12:29;14.40;99.90
20483;DHT22;10400;53.198;6.592;2022-10-22T08:14:55;14.30;99.90
20483;DHT22;10400;53.198;6.592;2022-10-22T08:17:21;14.40;99.90
20483;DHT22;10400;53.198;6.592;2022-10-22T08:19:46;14.40;99.90
20483;DHT22;10400;53.198;6.592;2022-10-22T08:22:12;14.40;99.90
20483;DHT22;10400;53.198;6.592;2022-10-22T08:24:38;14.50;99.90
20483;DHT22;10400;53.198;6.592;2022-10-22T08:27:03;14.50;99.90
20483;DHT22;10400;53.198;6.592;2022-10-22T08:29:29;14.50;99.90
20483;DHT22;10400;53.198;6.592;2022-10-22T08:31:54;14.50;99.90
20483;DHT22;10400;53.198;6.592;2022-10-22T08:34:20;14.50;99.90
20483;DHT22;10400;53.198;6.592;2022-10-22T08:36:46;14.60;99.90
20483;DHT22;10400;53.198;6.592;2022-10-22T08:39:12;14.60;99.90
20483;DHT22;10400;53.198;6.592;2022-10-22T08:50:02;15.10;99.90
20483;DHT22;10400;53.198;6.592;2022-10-22T08:52:28;15.20;99.90
20483;DHT22;10400;53.198;6.592;2022-10-22T08:54:56;15.20;99.90
20483;DHT22;10400;53.198;6.592;2022-10-22T09:00:37;15.30;99.90
20483;DHT22;10400;53.198;6.592;2022-10-22T09:05:55;15.50;99.90
20483;DHT22;10400;53.198;6.592;2022-10-22T09:08:23;15.60;99.90
20483;DHT22;10400;53.198;6.592;2022-10-22T09:10:53;15.70;99.90
20483;DHT22;10400;53.198;6.592;2022-10-22T09:13:20;15.80;99.90
20483;DHT22;10400;53.198;6.592;2022-10-22T09:15:56;15.90;99.90
20483;DHT22;10400;53.198;6.592;2022-10-22T09:18:45;16.00;99.90
20483;DHT22;10400;53.198;6.592;2022-10-22T09:24:25;16.10;99.90
20483;DHT22;10400;53.198;6.592;2022-10-22T09:26:52;16.20;99.90
20483;DHT22;10400;53.198;6.592;2022-10-22T09:29:23;16.20;99.90
20483;DHT22;10400;53.198;6.592;2022-10-22T09:31:51;16.20;99.90
20483;DHT22;10400;53.198;6.592;2022-10-22T09:34:20;16.30;99.90
20483;DHT22;10400;53.198;6.592;2022-10-22T09:36:46;16.40;99.90
20483;DHT22;10400;53.198;6.592;2022-10-22T09:39:31;16.50;99.90
20483;DHT22;10400;53.198;6.592;2022-10-22T09:41:57;16.50;99.90
20483;DHT22;10400;53.198;6.592;2022-10-22T09:44:23;16.50;99.90
20483;DHT22;10400;53.198;6.592;2022-10-22T09:46:48;16.60;99.90
20483;DHT22;10400;53.198;6.592;2022-10-22T09:49:16;16.70;99.90
20483;DHT22;10400;53.198;6.592;2022-10-22T09:57:19;16.60;99.90
20483;DHT22;10400;53.198;6.592;2022-10-22T09:59:50;16.60;99.90
20483;DHT22;10400;53.198;6.592;2022-10-22T10:02:20;16.70;99.90
20483;DHT22;10400;53.198;6.592;2022-10-22T10:04:48;16.60;99.90
20483;DHT22;10400;53.198;6.592;2022-10-22T10:07:25;16.50;99.90
20483;DHT22;10400;53.198;6.592;2022-10-22T10:09:52;16.50;99.90
20483;DHT22;10400;53.198;6.592;2022-10-22T10:17:44;16.50;99.90
20483;DHT22;10400;53.198;6.592;2022-10-22T10:23:11;16.50;99.90
20483;DHT22;10400;53.198;6.592;2022-10-22T10:25:47;16.50;99.90
20483;DHT22;10400;53.198;6.592;2022-10-22T10:34:11;16.40;99.90
20483;DHT22;10400;53.198;6.592;2022-10-22T10:36:49;16.50;99.90
20483;DHT22;10400;53.198;6.592;2022-10-22T10:45:24;16.50;99.90
20483;DHT22;10400;53.198;6.592;2022-10-22T10:50:44;16.50;99.90
20483;DHT22;10400;53.198;6.592;2022-10-22T10:56:15;16.50;99.90
20483;DHT22;10400;53.198;6.592;2022-10-22T11:07:14;16.40;99.90
20483;DHT22;10400;53.198;6.592;2022-10-22T11:09:53;16.40;99.90
20483;DHT22;10400;53.198;6.592;2022-10-22T11:12:33;16.40;99.90
20483;DHT22;10400;53.198;6.592;2022-10-22T11:15:20;16.30;99.90
20483;DHT22;10400;53.198;6.592;2022-10-22T11:17:51;16.30;99.90
20483;DHT22;10400;53.198;6.592;2022-10-22T11:23:13;16.20;99.90
20483;DHT22;10400;53.198;6.592;2022-10-22T11:25:44;16.10;99.90
20483;DHT22;10400;53.198;6.592;2022-10-22T11:28:25;16.10;99.90
20483;DHT22;10400;53.198;6.592;2022-10-22T11:31:19;16.10;99.90
20483;DHT22;10400;53.198;6.592;2022-10-22T11:33:50;16.10;99.90
20483;DHT22;10400;53.198;6.592;2022-10-22T11:36:20;16.20;99.90
20483;DHT22;10400;53.198;6.592;2022-10-22T11:38:46;16.20;99.90
20483;DHT22;10400;53.198;6.592;2022-10-22T11:41:15;16.30;99.90
20483;DHT22;10400;53.198;6.592;2022-10-22T11:43:57;16.40;99.90
20483;DHT22;10400;53.198;6.592;2022-10-22T11:46:26;16.40;99.90
20483;DHT22;10400;53.198;6.592;2022-10-22T11:49:41;16.60;99.90
20483;DHT22;10400;53.198;6.592;2022-10-22T11:52:37;16.60;99.90
20483;DHT22;10400;53.198;6.592;2022-10-22T12:00:53;16.50;99.90
20483;DHT22;10400;53.198;6.592;2022-10-22T12:08:51;16.40;99.90
20483;DHT22;10400;53.198;6.592;2022-10-22T12:16:17;16.30;99.90
20483;DHT22;10400;53.198;6.592;2022-10-22T12:18:44;16.40;99.90
20483;DHT22;10400;53.198;6.592;2022-10-22T12:21:13;16.40;99.90
20483;DHT22;10400;53.198;6.592;2022-10-22T12:23:40;16.50;99.90
20483;DHT22;10400;53.198;6.592;2022-10-22T12:26:30;16.50;99.90
20483;DHT22;10400;53.198;6.592;2022-10-22T12:29:00;16.60;99.90
20483;DHT22;10400;53.198;6.592;2022-10-22T12:31:26;16.70;99.90
20483;DHT22;10400;53.198;6.592;2022-10-22T12:33:56;16.70;99.90
20483;DHT22;10400;53.198;6.592;2022-10-22T12:36:25;16.60;99.90
20483;DHT22;10400;53.198;6.592;2022-10-22T12:38:51;16.70;99.90
20483;DHT22;10400;53.198;6.592;2022-10-22T12:41:17;16.80;99.90
20483;DHT22;10400;53.198;6.592;2022-10-22T12:43:43;16.60;99.90
20483;DHT22;10400;53.198;6.592;2022-10-22T12:46:14;16.60;99.90
20483;DHT22;10400;53.198;6.592;2022-10-22T12:48:43;16.60;99.90
20483;DHT22;10400;53.198;6.592;2022-10-22T12:51:17;16.60;99.90
20483;DHT22;10400;53.198;6.592;2022-10-22T12:53:50;16.50;99.90
20483;DHT22;10400;53.198;6.592;2022-10-22T12:56:21;16.50;99.90
20483;DHT22;10400;53.198;6.592;2022-10-22T12:58:56;16.50;99.90
20483;DHT22;10400;53.198;6.592;2022-10-22T13:01:25;16.50;99.90
20483;DHT22;10400;53.198;6.592;2022-10-22T13:06:50;16.40;99.90
20483;DHT22;10400;53.198;6.592;2022-10-22T13:09:20;16.40;99.90
20483;DHT22;10400;53.198;6.592;2022-10-22T13:12:02;16.50;99.90
20483;DHT22;10400;53.198;6.592;2022-10-22T13:14:36;16.70;99.90
20483;DHT22;10400;53.198;6.592;2022-10-22T13:22:37;16.90;99.90
20483;DHT22;10400;53.198;6.592;2022-10-22T13:28:30;17.10;99.90
20483;DHT22;10400;53.198;6.592;2022-10-22T13:30:33;17.20;99.90
20483;DHT22;10400;53.198;6.592;2022-10-22T13:33:01;17.20;99.90
20483;DHT22;10400;53.198;6.592;2022-10-22T13:35:31;17.20;99.90
20483;DHT22;10400;53.198;6.592;2022-10-22T13:37:58;17.30;99.90
20483;DHT22;10400;53.198;6.592;2022-10-22T13:40:24;17.40;99.90
20483;DHT22;10400;53.198;6.592;2022-10-22T13:42:50;17.40;99.90
20483;DHT22;10400;53.198;6.592;2022-10-22T13:45:16;17.40;99.90
20483;DHT22;10400;53.198;6.592;2022-10-22T13:47:50;17.40;99.90
20483;DHT22;10400;53.198;6.592;2022-10-22T13:50:17;17.30;99.90
20483;DHT22;10400;53.198;6.592;2022-10-22T13:52:53;17.30;99.90
20483;DHT22;10400;53.198;6.592;2022-10-22T13:57:51;17.10;99.90
20483;DHT22;10400;53.198;6.592;2022-10-22T14:00:19;17.10;99.90
20483;DHT22;10400;53.198;6.592;2022-10-22T14:02:51;17.00;99.90
20483;DHT22;10400;53.198;6.592;2022-10-22T14:05:18;17.10;99.90
20483;DHT22;10400;53.198;6.592;2022-10-22T14:07:44;17.00;99.90
20483;DHT22;10400;53.198;6.592;2022-10-22T14:10:23;16.90;99.90
20483;DHT22;10400;53.198;6.592;2022-10-22T14:12:50;16.80;99.90
20483;DHT22;10400;53.198;6.592;2022-10-22T14:15:18;16.80;99.90
20483;DHT22;10400;53.198;6.592;2022-10-22T14:17:48;16.80;99.90
20483;DHT22;10400;53.198;6.592;2022-10-22T14:20:20;16.70;99.90
20483;DHT22;10400;53.198;6.592;2022-10-22T14:22:47;16.60;99.90
20483;DHT22;10400;53.198;6.592;2022-10-22T14:25:20;16.60;99.90
20483;DHT22;10400;53.198;6.592;2022-10-22T14:27:46;16.60;99.90
20483;DHT22;10400;53.198;6.592;2022-10-22T14:30:23;16.60;99.90
20483;DHT22;10400;53.198;6.592;2022-10-22T14:32:49;16.60;99.90
20483;DHT22;10400;53.198;6.592;2022-10-22T14:35:17;16.60;99.90
20483;DHT22;10400;53.198;6.592;2022-10-22T14:37:43;16.70;99.90
20483;DHT22;10400;53.198;6.592;2022-10-22T14:40:12;16.60;99.90
20483;DHT22;10400;53.198;6.592;2022-10-22T14:42:40;16.60;99.90
20483;DHT22;10400;53.198;6.592;2022-10-22T14:47:39;16.50;99.90
20483;DHT22;10400;53.198;6.592;2022-10-22T14:50:04;16.40;99.90
20483;DHT22;10400;53.198;6.592;2022-10-22T14:52:32;16.50;99.90
20483;DHT22;10400;53.198;6.592;2022-10-22T14:54:58;16.40;99.90
20483;DHT22;10400;53.198;6.592;2022-10-22T14:57:23;16.40;99.90
20483;DHT22;10400;53.198;6.592;2022-10-22T14:59:49;16.40;99.90
20483;DHT22;10400;53.198;6.592;2022-10-22T15:02:19;16.40;99.90
20483;DHT22;10400;53.198;6.592;2022-10-22T15:04:45;16.30;99.90
20483;DHT22;10400;53.198;6.592;2022-10-22T15:07:10;16.30;99.90
20483;DHT22;10400;53.198;6.592;2022-10-22T15:09:36;16.30;99.90
20483;DHT22;10400;53.198;6.592;2022-10-22T15:12:02;16.30;99.90
20483;DHT22;10400;53.198;6.592;2022-10-22T15:14:27;16.30;99.90
20483;DHT22;10400;53.198;6.592;2022-10-22T15:16:53;16.20;99.90
20483;DHT22;10400;53.198;6.592;2022-10-22T15:19:18;16.20;99.90
20483;DHT22;10400;53.198;6.592;2022-10-22T15:21:44;16.20;99.90
20483;DHT22;10400;53.198;6.592;2022-10-22T15:24:10;16.20;99.90
20483;DHT22;10400;53.198;6.592;2022-10-22T15:26:35;16.20;99.90
20483;DHT22;10400;53.198;6.592;2022-10-22T15:29:02;16.20;99.90
20483;DHT22;10400;53.198;6.592;2022-10-22T15:31:53;16.20;99.90
20483;DHT22;10400;53.198;6.592;2022-10-22T15:34:25;16.10;99.90
20483;DHT22;10400;53.198;6.592;2022-10-22T15:36:57;16.00;99.90
20483;DHT22;10400;53.198;6.592;2022-10-22T15:39:23;15.90;99.90
20483;DHT22;10400;53.198;6.592;2022-10-22T15:41:50;15.80;99.90
20483;DHT22;10400;53.198;6.592;2022-10-22T15:44:21;15.80;99.90
20483;DHT22;10400;53.198;6.592;2022-10-22T15:46:47;15.70;99.90
20483;DHT22;10400;53.198;6.592;2022-10-22T15:49:15;15.60;99.90
20483;DHT22;10400;53.198;6.592;2022-10-22T15:51:40;15.60;99.90
20483;DHT22;10400;53.198;6.592;2022-10-22T15:54:09;15.60;99.90
20483;DHT22;10400;53.198;6.592;2022-10-22T15:56:36;15.50;99.90
20483;DHT22;10400;53.198;6.592;2022-10-22T15:59:02;15.50;99.90
20483;DHT22;10400;53.198;6.592;2022-10-22T16:01:29;15.40;99.90
20483;DHT22;10400;53.198;6.592;2022-10-22T16:03:55;15.50;99.90
20483;DHT22;10400;53.198;6.592;2022-10-22T16:06:38;15.40;99.90
20483;DHT22;10400;53.198;6.592;2022-10-22T16:09:07;15.30;99.90
20483;DHT22;10400;53.198;6.592;2022-10-22T16:11:33;15.20;99.90
20483;DHT22;10400;53.198;6.592;2022-10-22T16:14:00;15.20;99.90
20483;DHT22;10400;53.198;6.592;2022-10-22T16:16:27;15.20;99.90
20483;DHT22;10400;53.198;6.592;2022-10-22T16:18:54;15.10;99.90
20483;DHT22;10400;53.198;6.592;2022-10-22T16:21:21;15.10;99.90
20483;DHT22;10400;53.198;6.592;2022-10-22T16:23:47;15.00;99.90
20483;DHT22;10400;53.198;6.592;2022-10-22T16:26:14;15.00;99.90
20483;DHT22;10400;53.198;6.592;2022-10-22T16:28:41;15.00;99.90
20483;DHT22;10400;53.198;6.592;2022-10-22T16:31:09;15.00;99.90
20483;DHT22;10400;53.198;6.592;2022-10-22T16:33:36;15.00;99.90
20483;DHT22;10400;53.198;6.592;2022-10-22T16:36:02;14.90;99.90
20483;DHT22;10400;53.198;6.592;2022-10-22T16:38:28;14.90;99.90
20483;DHT22;10400;53.198;6.592;2022-10-22T16:41:06;14.80;99.90
20483;DHT22;10400;53.198;6.592;2022-10-22T16:43:31;14.70;99.90
20483;DHT22;10400;53.198;6.592;2022-10-22T16:45:57;14.70;99.90
20483;DHT22;10400;53.198;6.592;2022-10-22T16:48:23;14.60;99.90
20483;DHT22;10400;53.198;6.592;2022-10-22T16:50:48;14.60;99.90
20483;DHT22;10400;53.198;6.592;2022-10-22T16:53:14;14.50;99.90
20483;DHT22;10400;53.198;6.592;2022-10-22T16:55:40;14.50;99.90
20483;DHT22;10400;53.198;6.592;2022-10-22T16:58:05;14.40;99.90
20483;DHT22;10400;53.198;6.592;2022-10-22T17:00:32;14.40;99.90
20483;DHT22;10400;53.198;6.592;2022-10-22T17:02:57;14.30;99.90
20483;DHT22;10400;53.198;6.592;2022-10-22T17:05:23;14.30;99.90
20483;DHT22;10400;53.198;6.592;2022-10-22T17:07:49;14.30;99.90
20483;DHT22;10400;53.198;6.592;2022-10-22T17:10:16;14.30;99.90
20483;DHT22;10400;53.198;6.592;2022-10-22T17:12:44;14.30;99.90
20483;DHT22;10400;53.198;6.592;2022-10-22T17:15:10;14.20;99.90
20483;DHT22;10400;53.198;6.592;2022-10-22T17:17:36;14.20;99.90
20483;DHT22;10400;53.198;6.592;2022-10-22T17:20:02;14.10;99.90
20483;DHT22;10400;53.198;6.592;2022-10-22T17:22:28;14.10;99.90
20483;DHT22;10400;53.198;6.592;2022-10-22T17:25:16;14.10;99.90
20483;DHT22;10400;53.198;6.592;2022-10-22T17:27:43;14.10;99.90
20483;DHT22;10400;53.198;6.592;2022-10-22T17:30:17;14.10;99.90
20483;DHT22;10400;53.198;6.592;2022-10-22T17:32:43;14.10;99.90
20483;DHT22;10400;53.198;6.592;2022-10-22T17:35:09;14.10;99.90
20483;DHT22;10400;53.198;6.592;2022-10-22T17:37:36;14.10;99.90
20483;DHT22;10400;53.198;6.592;2022-10-22T17:40:03;14.00;99.90
20483;DHT22;10400;53.198;6.592;2022-10-22T17:42:29;14.10;99.90